createdAt,value
2023-02-19T00:00:22.923Z,6.31
2023-02-19T00:01:22.939Z,6.34
2023-02-19T00:02:22.941Z,6.37
2023-02-19T00:03:22.997Z,6.31
2023-02-19T00:04:22.982Z,6.36
2023-02-19T00:05:22.967Z,6.38
2023-02-19T00:06:23.016Z,6.48
2023-02-19T00:07:22.981Z,6.48
2023-02-19T00:08:22.999Z,6.49
2023-02-19T00:09:23.000Z,6.58
2023-02-19T00:10:23.015Z,6.61
2023-02-19T00:11:23.026Z,6.61
2023-02-19T00:12:23.042Z,6.62
2023-02-19T00:13:23.035Z,6.58
2023-02-19T00:14:23.057Z,6.62
2023-02-19T00:15:23.054Z,6.54
2023-02-19T00:16:23.067Z,6.52
2023-02-19T00:17:23.074Z,6.55
2023-02-19T00:18:23.084Z,6.49
2023-02-19T00:19:23.104Z,6.49
2023-02-19T00:20:23.128Z,6.44
2023-02-19T00:21:23.111Z,6.52
2023-02-19T00:22:23.119Z,6.41
2023-02-19T00:23:23.134Z,6.36
2023-02-19T00:24:23.142Z,6.37
2023-02-19T00:25:23.143Z,6.38
2023-02-19T00:26:23.169Z,6.41
2023-02-19T00:27:23.262Z,6.38
2023-02-19T00:28:23.175Z,6.40
2023-02-19T00:29:23.199Z,6.30
2023-02-19T00:30:23.250Z,6.36
2023-02-19T00:31:23.504Z,6.30
2023-02-19T00:32:23.294Z,6.34
2023-02-19T00:33:23.220Z,6.36
2023-02-19T00:34:23.233Z,6.30
2023-02-19T00:35:23.238Z,6.21
2023-02-19T00:36:23.276Z,6.33
2023-02-19T00:37:23.256Z,6.25
2023-02-19T00:38:23.271Z,6.30
2023-02-19T00:39:23.276Z,6.30
2023-02-19T00:40:23.289Z,6.30
2023-02-19T00:41:23.296Z,6.25
2023-02-19T00:42:23.318Z,6.28
2023-02-19T00:43:23.313Z,6.27
2023-02-19T00:44:23.353Z,6.22
2023-02-19T00:45:23.330Z,6.25
2023-02-19T00:46:23.472Z,6.31
2023-02-19T00:47:23.348Z,6.34
2023-02-19T00:48:23.371Z,6.41
2023-02-19T00:49:23.377Z,6.36
2023-02-19T00:50:23.380Z,6.40
2023-02-19T00:51:23.385Z,6.34
2023-02-19T00:52:23.420Z,6.38
2023-02-19T00:53:23.408Z,6.43
2023-02-19T00:54:23.414Z,6.49
2023-02-19T00:55:23.426Z,6.43
2023-02-19T00:56:23.434Z,6.52
2023-02-19T00:57:23.446Z,6.44
2023-02-19T00:58:23.448Z,6.49
2023-02-19T00:59:23.475Z,6.48
2023-02-19T01:00:23.470Z,6.48
2023-02-19T01:01:23.510Z,6.37
2023-02-19T01:02:23.488Z,6.41
2023-02-19T01:03:23.511Z,6.37
2023-02-19T01:04:23.538Z,6.40
2023-02-19T01:05:23.513Z,6.37
2023-02-19T01:06:23.519Z,6.41
2023-02-19T01:07:23.531Z,6.38
2023-02-19T01:08:23.554Z,6.46
2023-02-19T01:09:23.550Z,6.52
2023-02-19T01:10:23.553Z,6.51
2023-02-19T01:11:23.567Z,6.61
2023-02-19T01:12:23.578Z,6.56
2023-02-19T01:13:23.582Z,6.44
2023-02-19T01:14:23.587Z,6.51
2023-02-19T01:15:23.609Z,6.54
2023-02-19T01:16:23.681Z,6.52
2023-02-19T01:17:23.621Z,6.58
2023-02-19T01:18:23.625Z,6.51
2023-02-19T01:19:23.634Z,6.52
2023-02-19T01:20:23.644Z,6.54
2023-02-19T01:21:23.667Z,6.49
2023-02-19T01:22:23.676Z,6.52
2023-02-19T01:23:23.679Z,6.44
2023-02-19T01:24:23.704Z,6.51
2023-02-19T01:25:23.689Z,6.36
2023-02-19T01:26:23.697Z,6.36
2023-02-19T01:27:23.707Z,6.34
2023-02-19T01:28:23.714Z,6.36
2023-02-19T01:29:23.743Z,6.33
2023-02-19T01:30:23.910Z,6.40
2023-02-19T01:31:23.882Z,6.40
2023-02-19T01:32:23.778Z,6.34
2023-02-19T01:33:23.767Z,6.34
2023-02-19T01:34:23.778Z,6.34
2023-02-19T01:35:23.779Z,6.31
2023-02-19T01:36:23.794Z,6.40
2023-02-19T01:37:23.798Z,6.38
2023-02-19T01:38:23.802Z,6.36
2023-02-19T01:39:23.831Z,6.41
2023-02-19T01:40:23.842Z,6.36
2023-02-19T01:41:23.835Z,6.37
2023-02-19T01:42:23.840Z,6.34
2023-02-19T01:43:23.848Z,6.37
2023-02-19T01:44:23.859Z,6.37
2023-02-19T01:45:23.970Z,6.27
2023-02-19T01:46:23.886Z,6.28
2023-02-19T01:47:23.889Z,6.30
2023-02-19T01:48:23.892Z,6.27
2023-02-19T01:49:23.905Z,6.31
2023-02-19T01:50:23.918Z,6.18
2023-02-19T01:51:23.926Z,6.14
2023-02-19T01:52:23.926Z,6.09
2023-02-19T01:53:23.952Z,6.09
2023-02-19T01:54:23.945Z,6.12
2023-02-19T01:55:23.960Z,6.12
2023-02-19T01:56:24.046Z,6.04
2023-02-19T01:57:23.979Z,6.04
2023-02-19T01:58:23.981Z,6.14
2023-02-19T01:59:23.999Z,6.08
2023-02-19T02:00:24.001Z,6.04
2023-02-19T02:01:24.041Z,6.11
2023-02-19T02:02:24.022Z,6.14
2023-02-19T02:03:24.025Z,6.14
2023-02-19T02:04:24.033Z,6.15
2023-02-19T02:05:24.045Z,6.15
2023-02-19T02:06:24.217Z,6.12
2023-02-19T02:07:24.083Z,6.15
2023-02-19T02:08:24.067Z,6.19
2023-02-19T02:09:24.077Z,6.09
2023-02-19T02:10:24.091Z,6.06
2023-02-19T02:11:24.097Z,6.09
2023-02-19T02:12:24.125Z,6.17
2023-02-19T02:13:24.121Z,6.04
2023-02-19T02:14:24.121Z,6.04
2023-02-19T02:15:24.131Z,6.06
2023-02-19T02:16:24.329Z,6.00
2023-02-19T02:17:24.151Z,5.89
2023-02-19T02:18:24.155Z,5.90
2023-02-19T02:19:24.167Z,5.79
2023-02-19T02:20:24.184Z,5.79
2023-02-19T02:21:24.190Z,5.83
2023-02-19T02:22:24.189Z,5.79
2023-02-19T02:23:24.221Z,5.79
2023-02-19T02:24:24.213Z,5.81
2023-02-19T02:25:24.222Z,5.76
2023-02-19T02:26:24.224Z,5.75
2023-02-19T02:27:24.240Z,5.79
2023-02-19T02:28:24.284Z,5.78
2023-02-19T02:29:24.256Z,5.83
2023-02-19T02:30:24.303Z,5.82
2023-02-19T02:31:24.332Z,5.78
2023-02-19T02:32:24.290Z,5.81
2023-02-19T02:33:24.289Z,5.81
2023-02-19T02:34:24.290Z,5.90
2023-02-19T02:35:24.301Z,5.86
2023-02-19T02:36:24.309Z,5.79
2023-02-19T02:37:24.326Z,5.78
2023-02-19T02:38:24.326Z,5.78
2023-02-19T02:39:24.441Z,5.81
2023-02-19T02:40:24.340Z,5.81
2023-02-19T02:41:24.358Z,5.76
2023-02-19T02:42:24.358Z,5.75
2023-02-19T02:43:24.369Z,5.75
2023-02-19T02:44:24.374Z,5.81
2023-02-19T02:45:24.422Z,5.83
2023-02-19T02:46:24.392Z,5.83
2023-02-19T02:47:24.406Z,5.79
2023-02-19T02:48:24.410Z,5.85
2023-02-19T02:49:24.431Z,5.85
2023-02-19T02:50:24.432Z,5.82
2023-02-19T02:51:24.435Z,5.83
2023-02-19T02:52:24.443Z,5.85
2023-02-19T02:53:24.453Z,5.83
2023-02-19T02:54:24.469Z,5.82
2023-02-19T02:55:24.466Z,5.81
2023-02-19T02:56:24.479Z,5.83
2023-02-19T02:57:24.493Z,5.82
2023-02-19T02:58:24.563Z,5.85
2023-02-19T02:59:24.500Z,5.89
2023-02-19T03:00:24.543Z,5.94
2023-02-19T03:01:24.568Z,5.90
2023-02-19T03:02:24.571Z,5.89
2023-02-19T03:03:24.535Z,5.85
2023-02-19T03:04:24.545Z,5.81
2023-02-19T03:05:24.547Z,5.89
2023-02-19T03:06:24.562Z,5.85
2023-02-19T03:07:24.572Z,5.85
2023-02-19T03:08:24.570Z,5.90
2023-02-19T03:09:24.585Z,5.83
2023-02-19T03:10:24.590Z,5.82
2023-02-19T03:11:24.599Z,5.85
2023-02-19T03:12:24.605Z,5.81
2023-02-19T03:13:24.618Z,5.79
2023-02-19T03:14:24.622Z,5.83
2023-02-19T03:15:24.631Z,5.85
2023-02-19T03:16:24.729Z,5.79
2023-02-19T03:17:24.650Z,5.78
2023-02-19T03:18:24.653Z,5.75
2023-02-19T03:19:24.662Z,5.76
2023-02-19T03:20:24.680Z,5.78
2023-02-19T03:21:24.681Z,5.86
2023-02-19T03:22:24.690Z,5.81
2023-02-19T03:23:24.698Z,5.76
2023-02-19T03:24:24.701Z,5.83
2023-02-19T03:25:24.712Z,5.83
2023-02-19T03:26:24.714Z,5.94
2023-02-19T03:27:24.729Z,5.90
2023-02-19T03:28:24.744Z,5.96
2023-02-19T03:29:24.755Z,5.86
2023-02-19T03:30:24.801Z,5.85
2023-02-19T03:31:24.857Z,5.91
2023-02-19T03:32:24.764Z,5.89
2023-02-19T03:33:24.887Z,5.91
2023-02-19T03:34:26.189Z,5.90
2023-02-19T03:35:24.795Z,5.90
2023-02-19T03:36:24.799Z,5.89
2023-02-19T03:37:24.811Z,5.93
2023-02-19T03:38:24.818Z,5.86
2023-02-19T03:39:24.831Z,5.94
2023-02-19T03:40:24.830Z,5.93
2023-02-19T03:41:24.845Z,5.89
2023-02-19T03:42:24.844Z,5.91
2023-02-19T03:43:24.862Z,5.99
2023-02-19T03:44:24.887Z,5.94
2023-02-19T03:45:24.872Z,5.97
2023-02-19T03:46:24.877Z,5.99
2023-02-19T03:47:24.889Z,5.97
2023-02-19T03:48:24.895Z,5.99
2023-02-19T03:49:24.910Z,5.96
2023-02-19T03:50:24.923Z,5.99
2023-02-19T03:51:24.923Z,5.90
2023-02-19T03:52:24.934Z,5.99
2023-02-19T03:53:24.944Z,5.99
2023-02-19T03:54:25.045Z,5.96
2023-02-19T03:55:24.961Z,6.01
2023-02-19T03:56:24.968Z,6.08
2023-02-19T03:57:25.016Z,6.14
2023-02-19T03:58:24.993Z,6.12
2023-02-19T03:59:24.990Z,6.12
2023-02-19T04:00:25.004Z,6.08
2023-02-19T04:01:25.012Z,6.00
2023-02-19T04:02:25.051Z,6.01
2023-02-19T04:03:25.028Z,6.01
2023-02-19T04:04:25.040Z,6.03
2023-02-19T04:05:25.050Z,6.06
2023-02-19T04:06:25.047Z,6.06
2023-02-19T04:07:25.070Z,6.04
2023-02-19T04:08:25.072Z,6.04
2023-02-19T04:09:25.079Z,6.00
2023-02-19T04:10:25.080Z,6.15
2023-02-19T04:11:25.099Z,6.19
2023-02-19T04:12:25.108Z,6.22
2023-02-19T04:13:25.113Z,6.18
2023-02-19T04:14:25.117Z,6.19
2023-02-19T04:15:25.128Z,6.15
2023-02-19T04:16:25.171Z,6.12
2023-02-19T04:17:25.155Z,6.15
2023-02-19T04:18:25.155Z,6.06
2023-02-19T04:19:25.162Z,6.17
2023-02-19T04:20:25.167Z,6.12
2023-02-19T04:21:25.182Z,6.09
2023-02-19T04:22:25.191Z,6.09
2023-02-19T04:23:25.201Z,6.17
2023-02-19T04:24:25.202Z,6.09
2023-02-19T04:25:25.212Z,6.06
2023-02-19T04:26:25.217Z,6.06
2023-02-19T04:27:25.227Z,6.19
2023-02-19T04:28:25.261Z,6.30
2023-02-19T04:29:25.253Z,6.28
2023-02-19T04:30:25.254Z,6.22
2023-02-19T04:31:25.340Z,6.27
2023-02-19T04:32:25.262Z,6.21
2023-02-19T04:33:25.280Z,6.22
2023-02-19T04:34:25.279Z,6.34
2023-02-19T04:35:25.410Z,6.34
2023-02-19T04:36:25.294Z,6.61
2023-02-19T04:37:25.327Z,6.54
2023-02-19T04:38:25.313Z,6.66
2023-02-19T04:39:25.322Z,6.67
2023-02-19T04:40:25.326Z,6.59
2023-02-19T04:41:25.346Z,6.52
2023-02-19T04:42:25.344Z,6.48
2023-02-19T04:43:25.354Z,6.44
2023-02-19T04:44:25.360Z,6.34
2023-02-19T04:45:25.373Z,6.30
2023-02-19T04:46:25.400Z,6.28
2023-02-19T04:47:25.390Z,6.25
2023-02-19T04:48:25.400Z,6.25
2023-02-19T04:49:25.406Z,6.25
2023-02-19T04:50:25.405Z,6.27
2023-02-19T04:51:25.421Z,6.25
2023-02-19T04:52:25.431Z,6.22
2023-02-19T04:53:25.442Z,6.30
2023-02-19T04:54:25.444Z,6.21
2023-02-19T04:55:25.470Z,6.18
2023-02-19T04:56:25.456Z,6.14
2023-02-19T04:57:25.480Z,6.22
2023-02-19T04:58:25.474Z,6.19
2023-02-19T04:59:25.487Z,6.30
2023-02-19T05:00:25.489Z,6.41
2023-02-19T05:01:25.538Z,6.31
2023-02-19T05:02:25.507Z,6.28
2023-02-19T05:03:25.520Z,6.31
2023-02-19T05:04:25.563Z,6.30
2023-02-19T05:05:25.536Z,6.22
2023-02-19T05:06:25.544Z,6.18
2023-02-19T05:07:25.555Z,6.18
2023-02-19T05:08:25.566Z,6.11
2023-02-19T05:09:25.574Z,6.04
2023-02-19T05:10:25.576Z,6.01
2023-02-19T05:11:25.607Z,5.94
2023-02-19T05:12:25.595Z,6.03
2023-02-19T05:13:25.681Z,5.85
2023-02-19T05:14:25.612Z,5.96
2023-02-19T05:15:25.615Z,6.06
2023-02-19T05:16:25.626Z,6.14
2023-02-19T05:17:25.632Z,6.28
2023-02-19T05:18:25.645Z,6.31
2023-02-19T05:19:25.651Z,6.33
2023-02-19T05:20:25.661Z,6.36
2023-02-19T05:21:25.666Z,6.37
2023-02-19T05:22:25.677Z,6.38
2023-02-19T05:23:25.691Z,6.43
2023-02-19T05:24:25.701Z,6.44
2023-02-19T05:25:25.709Z,6.48
2023-02-19T05:26:25.712Z,6.38
2023-02-19T05:27:25.715Z,6.31
2023-02-19T05:28:25.728Z,6.37
2023-02-19T05:29:25.734Z,6.28
2023-02-19T05:30:25.792Z,6.28
2023-02-19T05:31:25.847Z,6.14
2023-02-19T05:32:25.761Z,6.01
2023-02-19T05:33:25.796Z,5.93
2023-02-19T05:34:25.785Z,5.83
2023-02-19T05:35:25.782Z,5.76
2023-02-19T05:36:25.794Z,5.85
2023-02-19T05:37:25.799Z,5.79
2023-02-19T05:38:25.829Z,5.81
2023-02-19T05:39:25.822Z,5.76
2023-02-19T05:40:25.848Z,5.63
2023-02-19T05:41:25.837Z,5.67
2023-02-19T05:42:25.841Z,5.53
2023-02-19T05:43:25.846Z,5.57
2023-02-19T05:44:25.860Z,5.53
2023-02-19T05:45:25.862Z,5.51
2023-02-19T05:46:25.948Z,5.51
2023-02-19T05:47:25.882Z,5.38
2023-02-19T05:48:25.898Z,5.35
2023-02-19T05:49:25.908Z,5.35
2023-02-19T05:50:25.975Z,5.38
2023-02-19T05:51:25.927Z,5.31
2023-02-19T05:52:25.924Z,5.31
2023-02-19T05:53:25.926Z,5.28
2023-02-19T05:54:25.939Z,5.35
2023-02-19T05:55:25.941Z,5.28
2023-02-19T05:56:25.996Z,5.42
2023-02-19T05:57:25.958Z,5.35
2023-02-19T05:58:25.969Z,5.36
2023-02-19T05:59:25.989Z,5.42
2023-02-19T06:00:25.986Z,5.43
2023-02-19T06:01:25.994Z,5.38
2023-02-19T06:02:26.037Z,5.46
2023-02-19T06:03:26.041Z,5.43
2023-02-19T06:04:26.018Z,5.30
2023-02-19T06:05:26.043Z,5.28
2023-02-19T06:06:26.036Z,5.31
2023-02-19T06:07:26.041Z,5.30
2023-02-19T06:08:26.048Z,5.33
2023-02-19T06:09:26.059Z,5.39
2023-02-19T06:10:26.065Z,5.27
2023-02-19T06:11:26.068Z,5.27
2023-02-19T06:12:26.080Z,5.22
2023-02-19T06:13:26.085Z,5.25
2023-02-19T06:14:26.095Z,5.21
2023-02-19T06:15:26.119Z,5.17
2023-02-19T06:16:26.314Z,5.20
2023-02-19T06:17:26.120Z,5.20
2023-02-19T06:18:26.125Z,5.17
2023-02-19T06:19:26.133Z,5.25
2023-02-19T06:20:26.402Z,5.28
2023-02-19T06:21:26.150Z,5.28
2023-02-19T06:22:26.159Z,5.33
2023-02-19T06:23:26.164Z,5.35
2023-02-19T06:24:26.177Z,5.36
2023-02-19T06:25:26.180Z,5.46
2023-02-19T06:26:26.193Z,5.51
2023-02-19T06:27:26.201Z,5.63
2023-02-19T06:28:26.208Z,5.63
2023-02-19T06:29:26.212Z,5.71
2023-02-19T06:30:26.318Z,5.64
2023-02-19T06:31:26.410Z,5.82
2023-02-19T06:32:26.285Z,6.04
2023-02-19T06:33:26.254Z,6.15
2023-02-19T06:34:26.259Z,6.09
2023-02-19T06:35:26.261Z,6.09
2023-02-19T06:36:26.272Z,6.06
2023-02-19T06:37:26.281Z,6.06
2023-02-19T06:38:26.297Z,6.08
2023-02-19T06:39:26.294Z,6.01
2023-02-19T06:40:26.306Z,6.04
2023-02-19T06:41:26.315Z,6.01
2023-02-19T06:42:26.321Z,6.03
2023-02-19T06:43:26.330Z,5.94
2023-02-19T06:44:26.339Z,5.90
2023-02-19T06:45:26.342Z,5.90
2023-02-19T06:46:26.444Z,5.86
2023-02-19T06:47:26.360Z,5.83
2023-02-19T06:48:26.372Z,5.85
2023-02-19T06:49:26.376Z,5.81
2023-02-19T06:50:26.387Z,5.81
2023-02-19T06:51:26.387Z,5.75
2023-02-19T06:52:26.416Z,5.82
2023-02-19T06:53:26.422Z,5.99
2023-02-19T06:54:26.422Z,6.14
2023-02-19T06:55:26.420Z,6.27
2023-02-19T06:56:26.442Z,6.36
2023-02-19T06:57:26.440Z,6.37
2023-02-19T06:58:26.450Z,6.41
2023-02-19T06:59:26.454Z,6.46
2023-02-19T07:00:26.475Z,6.70
2023-02-19T07:01:26.473Z,6.76
2023-02-19T07:02:26.485Z,6.81
2023-02-19T07:03:26.520Z,6.80
2023-02-19T07:04:26.562Z,6.79
2023-02-19T07:05:26.504Z,6.80
2023-02-19T07:06:26.510Z,6.67
2023-02-19T07:07:26.518Z,6.77
2023-02-19T07:08:28.565Z,6.76
2023-02-19T07:09:26.531Z,6.73
2023-02-19T07:10:26.540Z,6.67
2023-02-19T07:11:26.546Z,6.69
2023-02-19T07:12:26.560Z,6.70
2023-02-19T07:13:26.561Z,6.64
2023-02-19T07:14:26.579Z,6.66
2023-02-19T07:15:26.576Z,6.62
2023-02-19T07:16:26.667Z,6.69
2023-02-19T07:17:26.595Z,6.69
2023-02-19T07:18:26.613Z,6.64
2023-02-19T07:19:26.607Z,6.61
2023-02-19T07:20:26.625Z,6.62
2023-02-19T07:21:26.626Z,6.58
2023-02-19T07:22:26.642Z,6.52
2023-02-19T07:23:26.642Z,6.54
2023-02-19T07:24:26.653Z,6.52
2023-02-19T07:25:26.657Z,6.49
2023-02-19T07:26:26.678Z,6.43
2023-02-19T07:27:26.678Z,6.40
2023-02-19T07:28:26.689Z,6.38
2023-02-19T07:29:26.689Z,6.40
2023-02-19T07:30:26.730Z,6.37
2023-02-19T07:31:26.906Z,6.37
2023-02-19T07:32:26.726Z,6.38
2023-02-19T07:33:26.733Z,6.37
2023-02-19T07:34:26.732Z,6.41
2023-02-19T07:35:26.740Z,6.43
2023-02-19T07:36:26.749Z,6.40
2023-02-19T07:37:26.779Z,6.27
2023-02-19T07:38:26.770Z,6.36
2023-02-19T07:39:26.773Z,6.34
2023-02-19T07:40:26.785Z,6.36
2023-02-19T07:41:26.789Z,6.37
2023-02-19T07:42:26.805Z,6.36
2023-02-19T07:43:26.809Z,6.38
2023-02-19T07:44:26.817Z,6.51
2023-02-19T07:45:26.892Z,6.44
2023-02-19T07:46:26.857Z,6.43
2023-02-19T07:47:26.856Z,6.44
2023-02-19T07:48:26.856Z,6.54
2023-02-19T07:49:26.858Z,6.55
2023-02-19T07:50:26.869Z,6.56
2023-02-19T07:51:26.877Z,6.67
2023-02-19T07:52:26.895Z,6.74
2023-02-19T07:53:26.893Z,6.76
2023-02-19T07:54:26.903Z,6.74
2023-02-19T07:55:26.911Z,6.85
2023-02-19T07:56:26.920Z,6.91
2023-02-19T07:57:26.927Z,6.91
2023-02-19T07:58:26.932Z,6.99
2023-02-19T07:59:26.942Z,6.98
2023-02-19T08:00:27.034Z,6.98
2023-02-19T08:01:27.015Z,7.10
2023-02-19T08:02:26.970Z,7.07
2023-02-19T08:03:27.009Z,7.10
2023-02-19T08:04:26.989Z,7.10
2023-02-19T08:05:26.993Z,7.21
2023-02-19T08:06:27.104Z,7.25
2023-02-19T08:07:27.014Z,7.23
2023-02-19T08:08:27.025Z,7.30
2023-02-19T08:09:27.029Z,7.25
2023-02-19T08:10:27.154Z,7.27
2023-02-19T08:11:27.046Z,7.34
2023-02-19T08:12:27.059Z,7.27
2023-02-19T08:13:27.059Z,7.32
2023-02-19T08:14:27.119Z,7.40
2023-02-19T08:15:27.080Z,7.50
2023-02-19T08:16:42.123Z,7.58
2023-02-19T08:17:27.213Z,7.52
2023-02-19T08:18:27.105Z,7.61
2023-02-19T08:19:27.109Z,7.75
2023-02-19T08:20:27.125Z,8.01
2023-02-19T08:21:27.143Z,8.12
2023-02-19T08:22:27.156Z,8.23
2023-02-19T08:23:27.145Z,8.34
2023-02-19T08:24:27.160Z,8.23
2023-02-19T08:25:27.162Z,8.37
2023-02-19T08:26:27.177Z,8.28
2023-02-19T08:27:27.183Z,8.33
2023-02-19T08:28:27.197Z,8.19
2023-02-19T08:29:27.215Z,8.25
2023-02-19T08:30:27.607Z,8.28
2023-02-19T08:31:27.466Z,8.36
2023-02-19T08:32:27.234Z,8.41
2023-02-19T08:33:27.238Z,8.47
2023-02-19T08:34:27.248Z,8.62
2023-02-19T08:35:27.255Z,8.58
2023-02-19T08:36:27.277Z,8.53
2023-02-19T08:37:27.273Z,8.62
2023-02-19T08:38:27.285Z,8.55
2023-02-19T08:39:27.289Z,8.58
2023-02-19T08:40:27.306Z,8.47
2023-02-19T08:41:27.316Z,8.61
2023-02-19T08:42:27.323Z,8.74
2023-02-19T08:43:27.369Z,8.84
2023-02-19T08:44:27.343Z,8.74
2023-02-19T08:45:27.346Z,8.79
2023-02-19T08:46:27.360Z,8.84
2023-02-19T08:47:27.366Z,8.99
2023-02-19T08:48:27.378Z,9.13
2023-02-19T08:49:27.394Z,8.99
2023-02-19T08:50:27.397Z,8.99
2023-02-19T08:51:27.403Z,8.94
2023-02-19T08:52:27.415Z,9.42
2023-02-19T08:53:27.421Z,9.61
2023-02-19T08:54:27.432Z,9.79
2023-02-19T08:55:27.440Z,9.84
2023-02-19T08:56:27.452Z,9.99
2023-02-19T08:57:27.458Z,10.15
2023-02-19T08:58:27.473Z,10.14
2023-02-19T08:59:27.485Z,10.23
2023-02-19T09:00:27.498Z,10.20
2023-02-19T09:01:27.514Z,10.34
2023-02-19T09:02:27.516Z,10.51
2023-02-19T09:03:27.549Z,10.66
2023-02-19T09:04:27.568Z,10.78
2023-02-19T09:05:27.536Z,10.68
2023-02-19T09:06:27.558Z,10.56
2023-02-19T09:07:27.741Z,10.48
2023-02-19T09:08:27.574Z,10.32
2023-02-19T09:09:27.582Z,10.18
2023-02-19T09:10:27.593Z,10.09
2023-02-19T09:11:27.607Z,10.05
2023-02-19T09:12:27.613Z,9.96
2023-02-19T09:13:27.625Z,9.96
2023-02-19T09:14:27.633Z,9.91
2023-02-19T09:15:27.669Z,9.91
2023-02-19T09:16:27.651Z,9.78
2023-02-19T09:17:27.672Z,9.76
2023-02-19T09:18:27.680Z,9.60
2023-02-19T09:19:27.688Z,9.64
2023-02-19T09:20:27.720Z,9.46
2023-02-19T09:21:27.708Z,9.53
2023-02-19T09:22:27.728Z,9.46
2023-02-19T09:23:27.731Z,9.50
2023-02-19T09:24:27.764Z,9.65
2023-02-19T09:25:27.748Z,9.74
2023-02-19T09:26:27.762Z,9.74
2023-02-19T09:27:27.778Z,9.87
2023-02-19T09:28:27.786Z,9.99
2023-02-19T09:29:27.793Z,10.08
2023-02-19T09:30:27.937Z,10.01
2023-02-19T09:31:27.978Z,10.11
2023-02-19T09:32:27.821Z,10.15
2023-02-19T09:33:27.861Z,10.18
2023-02-19T09:34:27.860Z,10.32
2023-02-19T09:35:27.859Z,10.60
2023-02-19T09:36:27.868Z,10.71
2023-02-19T09:37:27.902Z,10.88
2023-02-19T09:38:27.892Z,11.00
2023-02-19T09:39:27.919Z,11.18
2023-02-19T09:40:27.907Z,11.33
2023-02-19T09:41:27.924Z,11.32
2023-02-19T09:42:27.929Z,11.40
2023-02-19T09:43:27.946Z,11.37
2023-02-19T09:44:27.959Z,11.44
2023-02-19T09:45:28.004Z,11.39
2023-02-19T09:46:28.055Z,11.54
2023-02-19T09:47:28.091Z,11.64
2023-02-19T09:48:28.003Z,12.04
2023-02-19T09:49:28.018Z,12.28
2023-02-19T09:50:28.020Z,12.47
2023-02-19T09:51:28.037Z,12.65
2023-02-19T09:52:28.042Z,12.83
2023-02-19T09:53:28.056Z,12.87
2023-02-19T09:54:28.070Z,12.86
2023-02-19T09:55:28.081Z,13.05
2023-02-19T09:56:28.086Z,13.22
2023-02-19T09:57:28.115Z,13.38
2023-02-19T09:58:28.134Z,13.12
2023-02-19T09:59:28.124Z,13.28
2023-02-19T10:00:28.133Z,13.08
2023-02-19T10:01:28.210Z,13.15
2023-02-19T10:02:28.164Z,13.29
2023-02-19T10:03:28.169Z,13.26
2023-02-19T10:04:28.188Z,13.33
2023-02-19T10:05:28.283Z,13.17
2023-02-19T10:06:28.205Z,13.05
2023-02-19T10:07:28.232Z,13.17
2023-02-19T10:08:28.237Z,13.30
2023-02-19T10:09:28.249Z,13.55
2023-02-19T10:10:28.256Z,13.48
2023-02-19T10:11:28.279Z,13.59
2023-02-19T10:12:28.283Z,13.77
2023-02-19T10:13:28.293Z,13.97
2023-02-19T10:14:28.299Z,13.99
2023-02-19T10:15:28.422Z,13.88
2023-02-19T10:16:28.336Z,13.81
2023-02-19T10:17:28.343Z,13.66
2023-02-19T10:18:28.388Z,13.51
2023-02-19T10:19:28.366Z,13.51
2023-02-19T10:20:28.378Z,13.30
2023-02-19T10:21:28.398Z,13.63
2023-02-19T10:22:28.403Z,13.44
2023-02-19T10:23:28.422Z,13.05
2023-02-19T10:24:28.454Z,13.26
2023-02-19T10:25:28.459Z,13.29
2023-02-19T10:26:28.468Z,13.66
2023-02-19T10:27:28.476Z,13.70
2023-02-19T10:28:28.495Z,13.75
2023-02-19T10:29:28.506Z,13.75
2023-02-19T10:30:28.559Z,14.02
2023-02-19T10:31:28.657Z,14.12
2023-02-19T10:32:28.534Z,14.04
2023-02-19T10:33:28.555Z,14.22
2023-02-19T10:34:28.590Z,14.06
2023-02-19T10:35:28.580Z,14.32
2023-02-19T10:36:31.644Z,14.51
2023-02-19T10:37:28.614Z,14.39
2023-02-19T10:38:28.617Z,14.57
2023-02-19T10:39:28.636Z,14.72
2023-02-19T10:40:28.655Z,14.73
2023-02-19T10:41:28.665Z,14.81
2023-02-19T10:42:28.679Z,14.42
2023-02-19T10:43:28.694Z,14.17
2023-02-19T10:44:28.709Z,14.54
2023-02-19T10:45:28.720Z,14.68
2023-02-19T10:46:28.784Z,14.42
2023-02-19T10:47:28.743Z,14.62
2023-02-19T10:48:28.772Z,14.86
2023-02-19T10:49:28.773Z,14.54
2023-02-19T10:50:28.784Z,14.02
2023-02-19T10:51:28.815Z,14.32
2023-02-19T10:52:28.912Z,14.51
2023-02-19T10:53:28.831Z,14.64
2023-02-19T10:54:28.850Z,15.11
2023-02-19T10:55:28.871Z,15.78
2023-02-19T10:56:28.891Z,15.94
2023-02-19T10:57:28.888Z,15.96
2023-02-19T10:58:28.898Z,15.76
2023-02-19T10:59:28.933Z,15.65
2023-02-19T11:00:28.930Z,15.64
2023-02-19T11:01:28.956Z,15.49
2023-02-19T11:02:28.957Z,14.83
2023-02-19T11:03:28.973Z,14.43
2023-02-19T11:04:29.143Z,14.55
2023-02-19T11:05:29.006Z,14.81
2023-02-19T11:06:29.017Z,14.62
2023-02-19T11:07:29.034Z,14.62
2023-02-19T11:08:29.047Z,14.51
2023-02-19T11:09:29.075Z,14.42
2023-02-19T11:10:29.108Z,14.12
2023-02-19T11:11:29.092Z,14.14
2023-02-19T11:12:29.107Z,14.46
2023-02-19T11:13:29.121Z,13.99
2023-02-19T11:14:29.135Z,14.21
2023-02-19T11:15:29.161Z,14.39
2023-02-19T11:16:29.188Z,14.21
2023-02-19T11:17:29.182Z,14.57
2023-02-19T11:18:29.194Z,14.75
2023-02-19T11:19:29.219Z,15.03
2023-02-19T11:20:29.225Z,15.02
2023-02-19T11:21:29.256Z,15.09
2023-02-19T11:22:29.251Z,14.51
2023-02-19T11:23:29.269Z,14.60
2023-02-19T11:24:29.287Z,14.95
2023-02-19T11:25:29.307Z,15.02
2023-02-19T11:26:29.351Z,15.44
2023-02-19T11:27:29.330Z,15.87
2023-02-19T11:28:29.344Z,16.20
2023-02-19T11:29:29.368Z,15.23
2023-02-19T11:30:29.428Z,15.46
2023-02-19T11:31:29.548Z,15.59
2023-02-19T11:32:29.445Z,15.86
2023-02-19T11:33:29.422Z,16.17
2023-02-19T11:34:29.440Z,16.31
2023-02-19T11:35:29.454Z,16.12
2023-02-19T11:36:30.426Z,16.00
2023-02-19T11:37:29.488Z,15.28
2023-02-19T11:38:29.500Z,15.69
2023-02-19T11:39:29.536Z,15.87
2023-02-19T11:40:29.581Z,16.05
2023-02-19T11:41:29.552Z,15.89
2023-02-19T11:42:29.772Z,15.80
2023-02-19T11:43:29.577Z,15.78
2023-02-19T11:44:29.593Z,15.49
2023-02-19T11:45:29.622Z,15.39
2023-02-19T11:46:29.658Z,14.88
2023-02-19T11:47:29.647Z,15.01
2023-02-19T11:48:30.313Z,15.27
2023-02-19T11:49:29.676Z,15.03
2023-02-19T11:50:29.688Z,15.19
2023-02-19T11:51:29.707Z,15.17
2023-02-19T11:52:29.727Z,15.34
2023-02-19T11:53:29.741Z,15.49
2023-02-19T11:54:29.751Z,15.29
2023-02-19T11:55:29.769Z,15.34
2023-02-19T11:56:29.801Z,15.39
2023-02-19T11:57:29.817Z,15.62
2023-02-19T11:58:29.816Z,15.92
2023-02-19T11:59:29.831Z,15.75
2023-02-19T12:00:29.880Z,15.46
2023-02-19T12:01:29.873Z,15.28
2023-02-19T12:02:29.877Z,15.39
2023-02-19T12:03:29.895Z,15.28
2023-02-19T12:04:29.913Z,14.77
2023-02-19T12:05:29.930Z,15.16
2023-02-19T12:06:29.943Z,15.43
2023-02-19T12:07:29.959Z,15.80
2023-02-19T12:08:29.993Z,15.60
2023-02-19T12:09:29.995Z,15.46
2023-02-19T12:10:30.005Z,15.39
2023-02-19T12:11:30.027Z,15.59
2023-02-19T12:12:30.042Z,15.68
2023-02-19T12:13:30.051Z,14.51
2023-02-19T12:14:30.066Z,14.78
2023-02-19T12:15:30.104Z,15.14
2023-02-19T12:16:30.172Z,15.36
2023-02-19T12:17:30.117Z,15.32
2023-02-19T12:18:30.128Z,15.32
2023-02-19T12:19:30.162Z,15.50
2023-02-19T12:20:31.894Z,15.84
2023-02-19T12:21:30.181Z,16.27
2023-02-19T12:22:30.195Z,16.33
2023-02-19T12:23:30.213Z,16.63
2023-02-19T12:24:30.225Z,16.73
2023-02-19T12:25:31.352Z,16.07
2023-02-19T12:26:30.270Z,15.86
2023-02-19T12:27:30.281Z,16.09
2023-02-19T12:28:30.290Z,15.84
2023-02-19T12:29:30.320Z,15.36
2023-02-19T12:30:30.343Z,15.38
2023-02-19T12:31:32.938Z,15.51
2023-02-19T12:32:30.354Z,15.69
2023-02-19T12:33:30.376Z,15.82
2023-02-19T12:34:30.392Z,15.44
2023-02-19T12:35:30.408Z,15.50
2023-02-19T12:36:30.430Z,15.89
2023-02-19T12:37:30.438Z,16.31
2023-02-19T12:38:30.452Z,16.30
2023-02-19T12:39:30.470Z,16.17
2023-02-19T12:40:30.487Z,15.84
2023-02-19T12:41:30.507Z,15.21
2023-02-19T12:42:30.517Z,15.51
2023-02-19T12:43:30.540Z,14.64
2023-02-19T12:44:30.552Z,14.84
2023-02-19T12:45:30.569Z,14.32
2023-02-19T12:46:30.587Z,14.36
2023-02-19T12:47:30.604Z,14.84
2023-02-19T12:48:30.633Z,14.98
2023-02-19T12:49:30.636Z,14.43
2023-02-19T12:50:30.651Z,14.25
2023-02-19T12:51:30.668Z,14.00
2023-02-19T12:52:30.682Z,13.96
2023-02-19T12:53:30.707Z,14.50
2023-02-19T12:54:30.716Z,14.12
2023-02-19T12:55:30.734Z,14.47
2023-02-19T12:56:30.761Z,14.92
2023-02-19T12:57:30.767Z,15.16
2023-02-19T12:58:30.782Z,14.68
2023-02-19T12:59:30.799Z,14.55
2023-02-19T13:00:30.823Z,14.51
2023-02-19T13:01:30.873Z,14.58
2023-02-19T13:02:30.907Z,14.78
2023-02-19T13:03:30.881Z,14.96
2023-02-19T13:04:30.890Z,15.01
2023-02-19T13:05:30.946Z,15.62
2023-02-19T13:06:30.919Z,15.19
2023-02-19T13:07:30.926Z,15.54
2023-02-19T13:08:33.053Z,15.43
2023-02-19T13:09:30.965Z,15.06
2023-02-19T13:10:30.987Z,15.03